Time;durP1;ratioP1;P1;durP2;ratioP2;P2;SDS_P1;SDS_P2;PMS_P1;PMS_P2;Temp;Humidity;BMP_temperature;BMP_pressure;BME280_temperature;BME280_humidity;BME280_pressure;Samples;Min_cycle;Max_cycle;Signal;HPM_P1;HPM_P2
2022/04/24 00:00:16;;;;;;;31.05;17.67;;;;;;;;;;5060068;28;20041;-87
2022/04/24 00:02:43;;;;;;;28.42;17.48;;;;;;;;;;5062912;28;20163;-87
2022/04/24 00:05:10;;;;;;;29.90;17.50;;;;;;;;;;5065450;28;20059;-87
2022/04/24 00:07:36;;;;;;;29.35;17.80;;;;;;;;;;5060580;28;20072;-87
2022/04/24 00:10:04;;;;;;;33.10;19.38;;;;;;;;;;5060051;28;20037;-87
2022/04/24 00:12:32;;;;;;;29.88;17.20;;;;;;;;;;5055623;28;20108;-88
2022/04/24 00:14:58;;;;;;;29.30;16.45;;;;;;;;;;5054574;28;20055;-87
2022/04/24 00:17:25;;;;;;;34.75;18.60;;;;;;;;;;5051181;28;20284;-87
2022/04/24 00:19:51;;;;;;;32.70;17.70;;;;;;;;;;5060804;28;20037;-88
2022/04/24 00:22:18;;;;;;;29.17;17.40;;;;;;;;;;5059373;28;20436;-88
2022/04/24 00:24:44;;;;;;;31.80;17.27;;;;;;;;;;5065076;28;20429;-87
2022/04/24 00:27:11;;;;;;;31.98;18.27;;;;;;;;;;5070016;28;20140;-88
2022/04/24 00:29:39;;;;;;;32.97;18.60;;;;;;;;;;5059309;28;20053;-88
2022/04/24 00:32:07;;;;;;;33.88;18.88;;;;;;;;;;5066876;28;20076;-87
2022/04/24 00:34:33;;;;;;;36.00;19.58;;;;;;;;;;5066860;28;20048;-87
2022/04/24 00:37:00;;;;;;;33.10;18.15;;;;;;;;;;5064554;28;20231;-88
2022/04/24 00:39:27;;;;;;;33.38;19.33;;;;;;;;;;5071013;28;20098;-87
2022/04/24 00:41:54;;;;;;;31.90;19.77;;;;;;;;;;5069192;28;20803;-88
2022/04/24 00:44:21;;;;;;;32.78;18.13;;;;;;;;;;5068610;28;20052;-87
2022/04/24 00:46:55;;;;;;;31.73;19.23;;;;;;;;;;5065627;28;20049;-87
2022/04/24 00:49:22;;;;;;;29.90;16.90;;;;;;;;;;5060242;28;20060;-88
2022/04/24 00:51:50;;;;;;;36.08;21.35;;;;;;;;;;5068670;28;20140;-88
2022/04/24 00:54:17;;;;;;;32.15;18.05;;;;;;;;;;5057767;28;20041;-87
2022/04/24 00:56:44;;;;;;;32.85;19.70;;;;;;;;;;5065481;28;20488;-87
2022/04/24 00:59:13;;;;;;;33.75;19.27;;;;;;;;;;5053079;28;20044;-88
2022/04/24 01:01:40;;;;;;;33.33;18.77;;;;;;;;;;5067772;28;20704;-87
2022/04/24 01:04:10;;;;;;;35.33;19.45;;;;;;;;;;5065494;28;20774;-88
2022/04/24 01:06:39;;;;;;;32.05;17.70;;;;;;;;;;5058898;28;20415;-87
2022/04/24 01:09:10;;;;;;;30.85;18.35;;;;;;;;;;5055703;28;20182;-87
2022/04/24 01:11:36;;;;;;;30.40;17.50;;;;;;;;;;5064416;28;20139;-86
2022/04/24 01:14:03;;;;;;;33.33;18.70;;;;;;;;;;5065983;28;20068;-86
2022/04/24 01:16:30;;;;;;;32.17;18.98;;;;;;;;;;5068421;28;20059;-86
2022/04/24 01:18:58;;;;;;;36.13;19.88;;;;;;;;;;5052914;28;20119;-86
2022/04/24 01:21:26;;;;;;;34.20;19.63;;;;;;;;;;5070894;28;20142;-87
2022/04/24 01:23:53;;;;;;;33.35;18.02;;;;;;;;;;5064602;28;20589;-87
2022/04/24 01:26:20;;;;;;;29.70;16.67;;;;;;;;;;5057541;28;20135;-89
2022/04/24 01:28:47;;;;;;;31.52;19.20;;;;;;;;;;5049029;28;20139;-86
2022/04/24 01:31:13;;;;;;;32.78;18.60;;;;;;;;;;5062623;28;20087;-86
2022/04/24 01:33:41;;;;;;;31.77;18.95;;;;;;;;;;5061842;28;20041;-87
2022/04/24 01:36:08;;;;;;;32.58;18.65;;;;;;;;;;5066295;28;20048;-86
2022/04/24 01:38:36;;;;;;;32.65;18.73;;;;;;;;;;5062496;28;20159;-86
2022/04/24 01:41:03;;;;;;;36.25;18.80;;;;;;;;;;5067523;28;20428;-86
2022/04/24 01:43:30;;;;;;;32.60;19.02;;;;;;;;;;5048444;28;20060;-86
2022/04/24 01:45:57;;;;;;;32.13;17.60;;;;;;;;;;5057911;28;20374;-86
2022/04/24 01:48:24;;;;;;;30.35;17.80;;;;;;;;;;5061599;28;20123;-86
2022/04/24 01:50:53;;;;;;;33.67;18.77;;;;;;;;;;5066428;28;20049;-86
2022/04/24 01:53:20;;;;;;;32.65;17.95;;;;;;;;;;5056478;28;20052;-85
2022/04/24 01:55:48;;;;;;;32.60;19.83;;;;;;;;;;5057068;28;20067;-86
2022/04/24 01:58:15;;;;;;;30.85;16.85;;;;;;;;;;5068451;28;20052;-86
2022/04/24 02:00:42;;;;;;;34.30;18.63;;;;;;;;;;5062629;28;20053;-86
2022/04/24 02:03:08;;;;;;;29.35;17.55;;;;;;;;;;5060576;28;20451;-86
2022/04/24 02:05:35;;;;;;;34.10;18.83;;;;;;;;;;5069398;28;20699;-86
2022/04/24 02:08:01;;;;;;;33.13;18.45;;;;;;;;;;5078939;28;20135;-85
2022/04/24 02:10:29;;;;;;;38.38;20.95;;;;;;;;;;5072237;28;20163;-85
2022/04/24 02:12:56;;;;;;;34.75;18.80;;;;;;;;;;5061218;28;20056;-86
2022/04/24 02:15:23;;;;;;;33.70;18.95;;;;;;;;;;5052609;28;20143;-86
2022/04/24 02:17:50;;;;;;;31.10;18.63;;;;;;;;;;5054867;28;20049;-86
2022/04/24 02:20:16;;;;;;;33.60;18.90;;;;;;;;;;5053486;28;20059;-86
2022/04/24 02:22:43;;;;;;;32.90;17.70;;;;;;;;;;5067459;28;20048;-86
2022/04/24 02:25:09;;;;;;;35.47;20.63;;;;;;;;;;5053601;28;20049;-86
2022/04/24 02:27:36;;;;;;;32.42;18.20;;;;;;;;;;5052828;28;20048;-86
2022/04/24 02:30:05;;;;;;;29.45;18.95;;;;;;;;;;5058884;28;20190;-86
2022/04/24 02:32:32;;;;;;;40.10;22.15;;;;;;;;;;5061505;28;20130;-86
2022/04/24 02:34:58;;;;;;;30.40;17.42;;;;;;;;;;5063888;28;20480;-86
2022/04/24 02:37:25;;;;;;;34.95;18.75;;;;;;;;;;5053017;28;20763;-87
2022/04/24 02:39:52;;;;;;;34.45;20.38;;;;;;;;;;5051459;28;20045;-86
2022/04/24 02:42:19;;;;;;;34.45;18.90;;;;;;;;;;5064556;28;20588;-86
2022/04/24 02:44:46;;;;;;;30.52;17.73;;;;;;;;;;5051399;28;20481;-86
2022/04/24 02:47:14;;;;;;;33.72;18.73;;;;;;;;;;5061341;28;20063;-86
2022/04/24 02:49:41;;;;;;;28.50;16.08;;;;;;;;;;5065749;28;20079;-86
2022/04/24 02:52:08;;;;;;;33.00;19.20;;;;;;;;;;5062630;28;20464;-86
2022/04/24 02:54:35;;;;;;;31.52;19.33;;;;;;;;;;5065040;28;20099;-88
2022/04/24 02:57:02;;;;;;;29.80;16.80;;;;;;;;;;5062433;28;20041;-88
2022/04/24 02:59:29;;;;;;;31.40;17.52;;;;;;;;;;5049834;28;20037;-88
2022/04/24 03:01:56;;;;;;;33.47;18.85;;;;;;;;;;5058375;28;20052;-87
2022/04/24 03:04:24;;;;;;;32.25;18.58;;;;;;;;;;5056713;28;20055;-88
2022/04/24 03:06:50;;;;;;;36.83;19.63;;;;;;;;;;5063421;28;20059;-88
2022/04/24 03:09:17;;;;;;;32.88;18.60;;;;;;;;;;5060790;28;20037;-87
2022/04/24 03:11:43;;;;;;;30.73;18.58;;;;;;;;;;5066030;28;20512;-87
2022/04/24 03:14:10;;;;;;;35.88;18.77;;;;;;;;;;5061908;28;20049;-88
2022/04/24 03:16:37;;;;;;;29.60;18.00;;;;;;;;;;5057947;28;20051;-87
2022/04/24 03:19:03;;;;;;;35.10;19.60;;;;;;;;;;5056901;28;20052;-87
2022/04/24 03:21:32;;;;;;;33.47;19.92;;;;;;;;;;5072001;28;20041;-87
2022/04/24 03:23:59;;;;;;;36.47;18.33;;;;;;;;;;5062724;28;20076;-87
2022/04/24 03:26:25;;;;;;;39.30;19.58;;;;;;;;;;5069232;28;20052;-87
2022/04/24 03:28:52;;;;;;;38.25;20.33;;;;;;;;;;5072860;28;20464;-87
2022/04/24 03:31:18;;;;;;;31.02;17.40;;;;;;;;;;5069546;28;20048;-87
2022/04/24 03:33:45;;;;;;;34.83;18.40;;;;;;;;;;5059279;28;20136;-87
2022/04/24 03:36:12;;;;;;;32.42;18.83;;;;;;;;;;5063494;28;20052;-87
2022/04/24 03:38:40;;;;;;;30.85;17.67;;;;;;;;;;5066087;28;20036;-87
2022/04/24 03:41:06;;;;;;;29.15;17.27;;;;;;;;;;5059240;28;20549;-87
2022/04/24 03:43:33;;;;;;;34.70;19.73;;;;;;;;;;5063895;28;20047;-88
2022/04/24 03:45:59;;;;;;;33.05;17.17;;;;;;;;;;5065011;28;20469;-87
2022/04/24 03:48:26;;;;;;;30.65;16.95;;;;;;;;;;5066790;28;20149;-87
2022/04/24 03:50:53;;;;;;;31.98;17.00;;;;;;;;;;5068267;28;20165;-87
2022/04/24 03:53:19;;;;;;;29.35;15.93;;;;;;;;;;5069052;28;20053;-88
2022/04/24 03:55:47;;;;;;;35.10;19.67;;;;;;;;;;5068962;28;20048;-88
2022/04/24 03:58:14;;;;;;;30.40;16.25;;;;;;;;;;5067647;28;20132;-88
2022/04/24 04:00:40;;;;;;;35.38;18.30;;;;;;;;;;5064016;28;20052;-88
2022/04/24 04:03:07;;;;;;;32.70;17.35;;;;;;;;;;5068638;28;20055;-88
2022/04/24 04:05:37;;;;;;;30.35;18.45;;;;;;;;;;5071864;28;20052;-88
2022/04/24 04:08:04;;;;;;;32.42;18.60;;;;;;;;;;5069883;28;20071;-88
2022/04/24 04:10:31;;;;;;;29.27;16.88;;;;;;;;;;5075507;28;20209;-88
2022/04/24 04:12:59;;;;;;;31.48;19.20;;;;;;;;;;5067529;28;20127;-87
2022/04/24 04:15:26;;;;;;;33.38;17.70;;;;;;;;;;5060181;28;20048;-88
2022/04/24 04:18:02;;;;;;;32.80;19.65;;;;;;;;;;5053276;28;20504;-88
2022/04/24 04:20:28;;;;;;;;;;;;;;;;;;5066133;28;20051;-87
2022/04/24 04:22:55;;;;;;;34.38;19.13;;;;;;;;;;5071868;28;20716;-88
2022/04/24 04:25:23;;;;;;;36.90;19.90;;;;;;;;;;5063574;28;20052;-87
2022/04/24 04:27:50;;;;;;;37.40;20.10;;;;;;;;;;5067545;28;20786;-88
2022/04/24 04:30:18;;;;;;;37.58;20.48;;;;;;;;;;5062605;28;20476;-87
2022/04/24 04:32:45;;;;;;;32.53;17.95;;;;;;;;;;5061758;28;20098;-87
2022/04/24 04:35:12;;;;;;;33.83;18.58;;;;;;;;;;5066641;28;20052;-87
2022/04/24 04:37:40;;;;;;;30.00;17.05;;;;;;;;;;5063736;28;20040;-86
2022/04/24 04:40:08;;;;;;;35.35;18.77;;;;;;;;;;5066228;28;20049;-86
2022/04/24 04:42:35;;;;;;;34.10;18.30;;;;;;;;;;5061377;28;20493;-87
2022/04/24 04:45:03;;;;;;;35.10;18.50;;;;;;;;;;5060267;28;20159;-87
2022/04/24 04:47:31;;;;;;;30.50;17.42;;;;;;;;;;5066596;28;20065;-87
2022/04/24 04:49:58;;;;;;;25.85;15.52;;;;;;;;;;5058666;28;20045;-86
2022/04/24 04:52:25;;;;;;;32.05;16.98;;;;;;;;;;5072478;28;20127;-86
2022/04/24 04:54:51;;;;;;;27.75;15.75;;;;;;;;;;5065512;28;20493;-87
2022/04/24 04:57:18;;;;;;;28.95;16.60;;;;;;;;;;5059663;28;20064;-87
2022/04/24 04:59:44;;;;;;;25.95;15.07;;;;;;;;;;5062821;28;20714;-87
2022/04/24 05:02:11;;;;;;;28.83;15.80;;;;;;;;;;5065558;28;20124;-87
2022/04/24 05:04:43;;;;;;;28.58;15.57;;;;;;;;;;5064819;28;20052;-86
2022/04/24 05:07:10;;;;;;;27.85;13.55;;;;;;;;;;5070018;28;20444;-87
2022/04/24 05:09:36;;;;;;;24.33;12.20;;;;;;;;;;5050212;28;20076;-86
2022/04/24 05:12:03;;;;;;;24.10;13.57;;;;;;;;;;5060050;28;20041;-87
2022/04/24 05:14:30;;;;;;;24.08;13.63;;;;;;;;;;5068225;28;20512;-87
2022/04/24 05:16:57;;;;;;;21.70;12.88;;;;;;;;;;5067452;28;20135;-87
2022/04/24 05:19:25;;;;;;;22.02;12.38;;;;;;;;;;5064931;28;20047;-86
2022/04/24 05:21:53;;;;;;;24.77;13.35;;;;;;;;;;5058149;28;20037;-87
2022/04/24 05:24:19;;;;;;;23.80;12.85;;;;;;;;;;5059274;28;20764;-87
2022/04/24 05:26:46;;;;;;;20.40;11.02;;;;;;;;;;5061634;28;20136;-87
2022/04/24 05:29:13;;;;;;;21.35;12.05;;;;;;;;;;5052838;28;20516;-87
2022/04/24 05:31:39;;;;;;;20.27;11.75;;;;;;;;;;5066003;28;20052;-87
2022/04/24 05:34:06;;;;;;;18.65;10.68;;;;;;;;;;5066092;28;20048;-87
2022/04/24 05:36:32;;;;;;;19.40;11.02;;;;;;;;;;5062815;28;20112;-86
2022/04/24 05:39:00;;;;;;;18.27;9.95;;;;;;;;;;5062248;28;20053;-87
2022/04/24 05:41:27;;;;;;;19.60;11.05;;;;;;;;;;5060905;28;20094;-87
2022/04/24 05:43:54;;;;;;;21.67;11.60;;;;;;;;;;5051008;28;20084;-86
2022/04/24 05:46:23;;;;;;;19.70;10.50;;;;;;;;;;5056739;28;20123;-87
2022/04/24 05:48:50;;;;;;;19.35;11.63;;;;;;;;;;5066163;28;20083;-87
2022/04/24 05:51:16;;;;;;;19.83;10.48;;;;;;;;;;5061263;28;20139;-86
2022/04/24 05:53:43;;;;;;;17.80;10.55;;;;;;;;;;5069241;28;20485;-87
2022/04/24 05:56:11;;;;;;;21.25;11.15;;;;;;;;;;5056678;28;20053;-86
2022/04/24 05:58:37;;;;;;;18.88;10.43;;;;;;;;;;5063794;28;20044;-86
2022/04/24 06:01:04;;;;;;;18.02;10.68;;;;;;;;;;5051497;28;20055;-87
2022/04/24 06:03:30;;;;;;;19.35;10.68;;;;;;;;;;5052254;28;20055;-87
2022/04/24 06:05:57;;;;;;;17.58;9.70;;;;;;;;;;5059229;28;20171;-87
2022/04/24 06:08:24;;;;;;;20.75;10.60;;;;;;;;;;5080685;28;20048;-87
2022/04/24 06:10:50;;;;;;;19.45;10.27;;;;;;;;;;5059958;28;20049;-87
2022/04/24 06:13:18;;;;;;;20.85;9.90;;;;;;;;;;5054691;28;20047;-87
2022/04/24 06:15:45;;;;;;;19.98;10.57;;;;;;;;;;5051020;28;20171;-87
2022/04/24 06:18:23;;;;;;;19.23;10.02;;;;;;;;;;5061476;28;20053;-87
2022/04/24 06:20:51;;;;;;;15.95;9.43;;;;;;;;;;5060651;28;20059;-87
2022/04/24 06:23:17;;;;;;;17.23;9.82;;;;;;;;;;5056592;28;20084;-87
2022/04/24 06:25:44;;;;;;;18.00;10.52;;;;;;;;;;5061407;28;20037;-88
2022/04/24 06:28:11;;;;;;;17.40;10.13;;;;;;;;;;5062961;28;20060;-87
2022/04/24 06:30:40;;;;;;;17.65;9.55;;;;;;;;;;5064465;28;20040;-87
2022/04/24 06:33:08;;;;;;;14.68;8.50;;;;;;;;;;5060347;28;20057;-88
2022/04/24 06:35:34;;;;;;;13.57;7.15;;;;;;;;;;5057985;28;20677;-88
2022/04/24 06:38:01;;;;;;;8.95;5.45;;;;;;;;;;5049142;28;20078;-87
2022/04/24 06:40:28;;;;;;;9.75;5.18;;;;;;;;;;5064637;28;20430;-87
2022/04/24 06:42:56;;;;;;;6.30;3.50;;;;;;;;;;5057154;28;20397;-87
2022/04/24 06:45:25;;;;;;;7.03;4.20;;;;;;;;;;5052872;28;20054;-87
2022/04/24 06:48:00;;;;;;;5.38;2.88;;;;;;;;;;5055020;28;20056;-87
2022/04/24 06:50:27;;;;;;;6.03;2.88;;;;;;;;;;5062718;28;20078;-88
2022/04/24 06:52:58;;;;;;;3.97;1.92;;;;;;;;;;5068479;28;20052;-87
2022/04/24 06:55:25;;;;;;;4.18;1.90;;;;;;;;;;5067002;28;20356;-87
2022/04/24 06:57:51;;;;;;;3.30;1.77;;;;;;;;;;5053207;28;20129;-87
2022/04/24 07:00:19;;;;;;;3.85;1.80;;;;;;;;;;5065315;28;20044;-87
2022/04/24 07:02:45;;;;;;;5.38;2.20;;;;;;;;;;5053027;28;20040;-87
2022/04/24 07:05:13;;;;;;;3.28;1.88;;;;;;;;;;5064619;28;20054;-88
2022/04/24 07:07:41;;;;;;;2.90;2.17;;;;;;;;;;5060053;28;20140;-88
2022/04/24 07:10:08;;;;;;;3.35;1.83;;;;;;;;;;5064802;28;20049;-87
2022/04/24 07:12:45;;;;;;;3.42;1.67;;;;;;;;;;5063477;28;20049;-87
2022/04/24 07:15:11;;;;;;;3.70;1.55;;;;;;;;;;5063980;28;20389;-88
2022/04/24 07:17:38;;;;;;;1.27;0.88;;;;;;;;;;5053540;28;20225;-87
2022/04/24 07:20:05;;;;;;;2.72;1.20;;;;;;;;;;5061775;28;20055;-87
2022/04/24 07:22:43;;;;;;;2.72;1.70;;;;;;;;;;5065633;28;20089;-88
2022/04/24 07:25:10;;;;;;;1.83;1.10;;;;;;;;;;5054308;28;20807;-88
2022/04/24 07:27:37;;;;;;;2.67;1.48;;;;;;;;;;5064623;28;20044;-88
2022/04/24 07:30:04;;;;;;;2.20;1.10;;;;;;;;;;5059305;28;20470;-88
2022/04/24 07:32:39;;;;;;;2.70;1.27;;;;;;;;;;5060410;28;20131;-88
2022/04/24 07:35:06;;;;;;;1.63;0.82;;;;;;;;;;5066604;28;20059;-87
2022/04/24 07:37:33;;;;;;;1.65;0.90;;;;;;;;;;5060092;28;20076;-87
2022/04/24 07:40:01;;;;;;;3.33;1.60;;;;;;;;;;5052253;28;20135;-87
2022/04/24 07:42:30;;;;;;;1.90;0.98;;;;;;;;;;5062116;28;20473;-87
2022/04/24 07:44:58;;;;;;;2.95;1.10;;;;;;;;;;5058764;28;20156;-87
2022/04/24 07:47:25;;;;;;;3.05;1.80;;;;;;;;;;5054345;28;20475;-87
2022/04/24 07:49:51;;;;;;;7.68;4.80;;;;;;;;;;5053726;28;20045;-87
2022/04/24 07:52:19;;;;;;;6.05;2.75;;;;;;;;;;5053965;28;20390;-87
2022/04/24 07:54:46;;;;;;;2.65;1.55;;;;;;;;;;5059432;28;20135;-87
2022/04/24 07:57:14;;;;;;;1.95;0.93;;;;;;;;;;5058345;28;20127;-87
2022/04/24 07:59:40;;;;;;;2.75;1.00;;;;;;;;;;5057903;28;20052;-87
2022/04/24 08:02:07;;;;;;;2.40;1.10;;;;;;;;;;5058752;28;20044;-88
2022/04/24 08:04:33;;;;;;;3.00;1.30;;;;;;;;;;5059106;28;20037;-88
2022/04/24 08:07:00;;;;;;;2.13;1.13;;;;;;;;;;5063298;28;20060;-87
2022/04/24 08:09:26;;;;;;;2.42;1.40;;;;;;;;;;5059174;28;20045;-88
2022/04/24 08:11:53;;;;;;;2.42;0.88;;;;;;;;;;5063920;28;20683;-87
2022/04/24 08:14:21;;;;;;;3.72;1.00;;;;;;;;;;5065967;28;20837;-88
2022/04/24 08:16:53;;;;;;;3.30;1.00;;;;;;;;;;5057604;28;20045;-87
2022/04/24 08:19:35;;;;;;;1.70;0.80;;;;;;;;;;5059880;28;20664;-88
2022/04/24 08:22:04;;;;;;;2.40;1.20;;;;;;;;;;5060883;28;20076;-88
2022/04/24 08:24:31;;;;;;;1.30;0.82;;;;;;;;;;5058898;28;20420;-89
2022/04/24 08:26:59;;;;;;;2.25;1.20;;;;;;;;;;5062445;28;20147;-88
2022/04/24 08:29:43;;;;;;;2.92;1.27;;;;;;;;;;5042138;28;20130;-88
2022/04/24 08:32:10;;;;;;;3.63;1.73;;;;;;;;;;5068086;28;20052;-88
2022/04/24 08:34:46;;;;;;;4.85;2.15;;;;;;;;;;5065263;28;20043;-88
2022/04/24 08:37:17;;;;;;;5.45;2.63;;;;;;;;;;5067052;28;20843;-89
2022/04/24 08:39:44;;;;;;;2.85;1.50;;;;;;;;;;5063506;28;20105;-89
2022/04/24 08:42:13;;;;;;;3.25;1.70;;;;;;;;;;5065197;28;20072;-88
2022/04/24 08:44:44;;;;;;;1.27;1.00;;;;;;;;;;5063683;28;20151;-88
2022/04/24 08:47:15;;;;;;;2.33;1.20;;;;;;;;;;5060352;28;20131;-89
2022/04/24 08:49:42;;;;;;;3.00;0.95;;;;;;;;;;5063730;28;20051;-89
2022/04/24 08:52:11;;;;;;;2.28;0.88;;;;;;;;;;5059548;28;20089;-88
2022/04/24 08:54:38;;;;;;;2.50;0.90;;;;;;;;;;5060274;28;20045;-88
2022/04/24 08:57:05;;;;;;;2.47;0.80;;;;;;;;;;5060293;28;20599;-89
2022/04/24 08:59:32;;;;;;;1.73;1.00;;;;;;;;;;5060719;28;20051;-89
2022/04/24 09:02:00;;;;;;;2.30;1.13;;;;;;;;;;5062097;28;20076;-89
2022/04/24 09:04:27;;;;;;;1.00;0.70;;;;;;;;;;5062758;28;20044;-89
2022/04/24 09:06:58;;;;;;;0.98;0.45;;;;;;;;;;5060833;28;20051;-89
2022/04/24 09:09:25;;;;;;;0.82;0.55;;;;;;;;;;5061766;28;20044;-89
2022/04/24 09:11:51;;;;;;;1.52;0.82;;;;;;;;;;5062680;28;20536;-89
2022/04/24 09:14:19;;;;;;;1.45;0.85;;;;;;;;;;5059792;28;20464;-89
2022/04/24 09:16:50;;;;;;;2.08;1.30;;;;;;;;;;5060424;28;20048;-88
2022/04/24 09:19:20;;;;;;;2.00;1.00;;;;;;;;;;5057113;28;20051;-88
2022/04/24 09:21:47;;;;;;;0.60;0.50;;;;;;;;;;5057353;28;20048;-88
2022/04/24 09:24:14;;;;;;;0.95;0.60;;;;;;;;;;5059272;28;20048;-89
2022/04/24 09:26:50;;;;;;;2.00;0.60;;;;;;;;;;5058180;28;20153;-88
2022/04/24 09:29:17;;;;;;;6.32;0.80;;;;;;;;;;5055481;28;20040;-88
2022/04/24 09:31:47;;;;;;;0.98;0.50;;;;;;;;;;5058312;28;20044;-89
2022/04/24 09:34:14;;;;;;;3.80;1.30;;;;;;;;;;5059514;28;20052;-88
2022/04/24 09:36:42;;;;;;;1.50;1.00;;;;;;;;;;5056841;28;20059;-89
2022/04/24 09:39:09;;;;;;;1.17;0.68;;;;;;;;;;5063611;28;20083;-89
2022/04/24 09:41:37;;;;;;;1.02;0.57;;;;;;;;;;5059329;28;20513;-89
2022/04/24 09:44:12;;;;;;;2.15;0.98;;;;;;;;;;5061923;28;20048;-88
2022/04/24 09:46:39;;;;;;;1.75;0.60;;;;;;;;;;5058997;28;20045;-88
2022/04/24 09:49:08;;;;;;;0.88;0.50;;;;;;;;;;5058379;28;20132;-89
2022/04/24 09:51:39;;;;;;;0.40;0.20;;;;;;;;;;5057939;28;20127;-88
2022/04/24 09:54:07;;;;;;;1.23;0.63;;;;;;;;;;5059860;28;20056;-89
2022/04/24 09:56:34;;;;;;;0.70;0.47;;;;;;;;;;5064958;28;20048;-89
2022/04/24 09:59:01;;;;;;;1.13;0.45;;;;;;;;;;5063233;28;20044;-89
2022/04/24 10:01:29;;;;;;;1.42;0.68;;;;;;;;;;5064800;28;20623;-89
2022/04/24 10:03:56;;;;;;;0.70;0.50;;;;;;;;;;5062682;28;20078;-89
2022/04/24 10:06:23;;;;;;;0.57;0.28;;;;;;;;;;5063419;28;20049;-89
2022/04/24 10:08:50;;;;;;;0.70;0.50;;;;;;;;;;5062178;28;20515;-89
2022/04/24 10:11:18;;;;;;;2.38;0.40;;;;;;;;;;5061297;28;20199;-89
2022/04/24 10:13:48;;;;;;;0.75;0.40;;;;;;;;;;5058288;28;20505;-88
2022/04/24 10:16:29;;;;;;;1.13;0.68;;;;;;;;;;5058487;28;20045;-89
2022/04/24 10:19:03;;;;;;;1.05;0.40;;;;;;;;;;5059482;28;20560;-89
2022/04/24 10:21:42;;;;;;;0.88;0.50;;;;;;;;;;5060188;28;20041;-90
2022/04/24 10:24:10;;;;;;;0.30;0.20;;;;;;;;;;5061367;28;20049;-89
2022/04/24 10:26:38;;;;;;;0.38;0.30;;;;;;;;;;5055730;28;20041;-89
2022/04/24 10:29:06;;;;;;;0.95;0.35;;;;;;;;;;5059978;28;20565;-90
2022/04/24 10:31:42;;;;;;;0.73;0.30;;;;;;;;;;5058831;28;20052;-90
2022/04/24 10:34:09;;;;;;;0.10;0.10;;;;;;;;;;5058059;28;20052;-89
2022/04/24 10:36:36;;;;;;;0.35;0.20;;;;;;;;;;5058099;28;20639;-90
2022/04/24 10:39:15;;;;;;;0.20;0.20;;;;;;;;;;5056369;28;20555;-89
2022/04/24 10:41:54;;;;;;;0.88;0.25;;;;;;;;;;5058222;28;20055;-89
2022/04/24 10:44:20;;;;;;;0.30;0.22;;;;;;;;;;5059906;28;20063;-89
2022/04/24 10:46:54;;;;;;;0.52;0.22;;;;;;;;;;5055352;28;20709;-89
2022/04/24 10:49:21;;;;;;;0.25;0.15;;;;;;;;;;5056656;28;20049;-89
2022/04/24 10:51:59;;;;;;;0.70;0.30;;;;;;;;;;5062421;28;20045;-89
2022/04/24 10:54:31;;;;;;;0.32;0.10;;;;;;;;;;5062689;28;20049;-89
2022/04/24 10:56:59;;;;;;;0.50;0.20;;;;;;;;;;5062492;28;20820;-89
2022/04/24 10:59:26;;;;;;;0.10;0.10;;;;;;;;;;5064819;28;20136;-89
2022/04/24 11:01:54;;;;;;;3.17;0.80;;;;;;;;;;5060342;28;20057;-89
2022/04/24 11:04:22;;;;;;;0.60;0.30;;;;;;;;;;5060336;28;20058;-88
2022/04/24 11:06:53;;;;;;;1.95;0.30;;;;;;;;;;5060980;28;20133;-88
2022/04/24 11:09:20;;;;;;;0.20;0.10;;;;;;;;;;5061959;28;20055;-89
2022/04/24 11:11:47;;;;;;;0.73;0.30;;;;;;;;;;5062374;28;20040;-88
2022/04/24 11:14:19;;;;;;;0.30;0.30;;;;;;;;;;5062909;28;20057;-89
2022/04/24 11:16:52;;;;;;;2.80;0.22;;;;;;;;;;5063339;28;20058;-89
2022/04/24 11:19:23;;;;;;;0.38;0.30;;;;;;;;;;5064474;28;20052;-90
2022/04/24 11:21:56;;;;;;;0.30;0.20;;;;;;;;;;5063695;28;20052;-89
2022/04/24 11:24:25;;;;;;;0.40;0.30;;;;;;;;;;5060361;28;20051;-89
2022/04/24 11:26:52;;;;;;;0.68;0.40;;;;;;;;;;5061333;28;21533;-89
2022/04/24 11:29:24;;;;;;;0.57;0.28;;;;;;;;;;5064129;28;20095;-89
2022/04/24 11:31:51;;;;;;;0.70;0.38;;;;;;;;;;5062348;28;20040;-89
2022/04/24 11:34:19;;;;;;;0.65;0.20;;;;;;;;;;5062608;28;20067;-90
2022/04/24 11:36:46;;;;;;;0.88;0.40;;;;;;;;;;5066618;28;20052;-90
2022/04/24 11:39:13;;;;;;;1.33;0.52;;;;;;;;;;5066485;28;20045;-90
2022/04/24 11:41:41;;;;;;;0.30;0.20;;;;;;;;;;5065810;28;20032;-90
2022/04/24 11:52:35;;;;;;;1.00;0.20;;;;;;;;;;5071225;28;20095;-88
2022/04/24 11:55:03;;;;;;;0.60;0.52;;;;;;;;;;5067682;28;20767;-89
2022/04/24 11:57:29;;;;;;;0.25;0.10;;;;;;;;;;5065824;28;20028;-90
2022/04/24 11:59:56;;;;;;;0.98;0.30;;;;;;;;;;5063986;28;20037;-89
2022/04/24 12:02:28;;;;;;;0.38;0.20;;;;;;;;;;5067684;28;20726;-89
2022/04/24 12:04:56;;;;;;;7.38;0.60;;;;;;;;;;5065073;28;20463;-89
2022/04/24 12:07:29;;;;;;;1.00;0.35;;;;;;;;;;5066290;28;20546;-88
2022/04/24 12:10:01;;;;;;;0.43;0.20;;;;;;;;;;5062715;28;20048;-89
2022/04/24 12:12:27;;;;;;;0.52;0.20;;;;;;;;;;5064400;28;20044;-89
2022/04/24 12:14:54;;;;;;;0.93;0.50;;;;;;;;;;5066825;28;20051;-89
2022/04/24 12:17:27;;;;;;;0.75;0.30;;;;;;;;;;5066491;28;20182;-89
2022/04/24 12:19:55;;;;;;;5.78;1.48;;;;;;;;;;5068436;28;20053;-90
2022/04/24 12:22:29;;;;;;;0.45;0.30;;;;;;;;;;5076749;28;20073;-89
2022/04/24 12:25:07;;;;;;;1.08;0.52;;;;;;;;;;5060051;28;20048;-89
2022/04/24 12:27:33;;;;;;;0.47;0.40;;;;;;;;;;5063665;28;20131;-90
2022/04/24 12:30:03;;;;;;;2.10;1.15;;;;;;;;;;5067745;28;20059;-88
2022/04/24 12:32:34;;;;;;;1.15;0.52;;;;;;;;;;5066814;28;20040;-88
2022/04/24 12:35:01;;;;;;;1.33;0.60;;;;;;;;;;5064078;28;20052;-90
2022/04/24 12:37:31;;;;;;;0.28;0.28;;;;;;;;;;5068121;28;20047;-90
2022/04/24 12:39:58;;;;;;;1.90;0.47;;;;;;;;;;5068005;28;20538;-90
2022/04/24 12:42:28;;;;;;;4.95;2.30;;;;;;;;;;5069877;28;20048;-90
2022/04/24 12:44:58;;;;;;;5.15;2.60;;;;;;;;;;5067476;28;20041;-90
2022/04/24 12:47:25;;;;;;;2.70;1.33;;;;;;;;;;5067783;28;20075;-90
2022/04/24 12:49:53;;;;;;;2.78;0.70;;;;;;;;;;5067400;28;20623;-90
2022/04/24 12:52:21;;;;;;;2.33;1.02;;;;;;;;;;5066373;28;20167;-90
2022/04/24 12:54:48;;;;;;;1.30;0.52;;;;;;;;;;5066461;28;20085;-90
2022/04/24 12:57:17;;;;;;;1.48;0.70;;;;;;;;;;5061175;28;20464;-90
2022/04/24 12:59:45;;;;;;;0.85;0.63;;;;;;;;;;5062852;28;20055;-90
2022/04/24 13:02:12;;;;;;;1.80;0.68;;;;;;;;;;5066494;28;20036;-90
2022/04/24 13:04:39;;;;;;;4.72;1.45;;;;;;;;;;5067586;28;20606;-89
2022/04/24 13:07:08;;;;;;;2.33;0.85;;;;;;;;;;5069412;28;20052;-91
2022/04/24 13:09:38;;;;;;;2.13;0.95;;;;;;;;;;5068623;28;20048;-90
2022/04/24 13:12:08;;;;;;;1.67;0.77;;;;;;;;;;5067334;28;20051;-90
2022/04/24 13:14:34;;;;;;;1.92;1.00;;;;;;;;;;5066209;28;20050;-90
2022/04/24 13:19:50;;;;;;;2.88;0.70;;;;;;;;;;5065473;28;20726;-90
2022/04/24 13:22:18;;;;;;;2.17;1.50;;;;;;;;;;5066647;28;20037;-89
2022/04/24 13:24:45;;;;;;;0.85;0.43;;;;;;;;;;5066371;28;20107;-89
2022/04/24 13:27:12;;;;;;;1.55;0.63;;;;;;;;;;5066675;28;20059;-90
2022/04/24 13:29:39;;;;;;;1.15;0.75;;;;;;;;;;5066668;28;20048;-89
2022/04/24 13:32:09;;;;;;;4.78;1.33;;;;;;;;;;5066154;28;20702;-90
2022/04/24 13:34:38;;;;;;;2.30;1.00;;;;;;;;;;5067420;28;20131;-89
2022/04/24 13:39:50;;;;;;;0.93;0.60;;;;;;;;;;5065808;28;20059;-89
2022/04/24 13:42:17;;;;;;;1.52;0.52;;;;;;;;;;5064067;28;20032;-90
2022/04/24 13:44:44;;;;;;;1.33;0.80;;;;;;;;;;5065614;28;20566;-89
2022/04/24 13:47:20;;;;;;;1.77;1.02;;;;;;;;;;5063378;28;20053;-90
2022/04/24 13:49:46;;;;;;;10.85;4.68;;;;;;;;;;5062498;28;20681;-89
2022/04/24 13:52:13;;;;;;;9.07;4.35;;;;;;;;;;5065097;28;20425;-90
2022/04/24 13:54:40;;;;;;;4.57;2.40;;;;;;;;;;5062076;28;20045;-90
2022/04/24 13:57:08;;;;;;;2.38;1.23;;;;;;;;;;5063160;28;21366;-90
2022/04/24 13:59:36;;;;;;;2.25;0.82;;;;;;;;;;5060881;28;20072;-90
2022/04/24 14:02:06;;;;;;;2.35;1.10;;;;;;;;;;5062315;28;20604;-90
2022/04/24 14:04:32;;;;;;;1.85;1.00;;;;;;;;;;5064276;28;20139;-90
2022/04/24 14:07:03;;;;;;;2.13;1.10;;;;;;;;;;5065421;28;20131;-90
2022/04/24 14:09:30;;;;;;;2.15;0.90;;;;;;;;;;5062869;28;20058;-88
2022/04/24 14:11:57;;;;;;;1.92;0.98;;;;;;;;;;5068373;28;20131;-91
2022/04/24 14:14:25;;;;;;;3.55;1.52;;;;;;;;;;5066419;28;20072;-90
2022/04/24 14:16:51;;;;;;;4.45;2.53;;;;;;;;;;5062923;28;20122;-90
2022/04/24 14:19:18;;;;;;;3.90;1.67;;;;;;;;;;5067060;28;20471;-90
2022/04/24 14:21:44;;;;;;;3.05;2.30;;;;;;;;;;5068246;28;20045;-90
2022/04/24 14:24:12;;;;;;;2.58;1.50;;;;;;;;;;5062953;28;20602;-90
2022/04/24 14:26:38;;;;;;;3.72;1.63;;;;;;;;;;5064293;28;20048;-90
2022/04/24 14:29:05;;;;;;;5.85;2.15;;;;;;;;;;5062942;28;20140;-90
2022/04/24 14:31:33;;;;;;;7.78;4.22;;;;;;;;;;5067016;28;20131;-90
2022/04/24 14:34:00;;;;;;;11.40;6.13;;;;;;;;;;5064658;28;20687;-90
2022/04/24 14:36:28;;;;;;;3.40;1.70;;;;;;;;;;5063446;28;20053;-90
2022/04/24 14:38:55;;;;;;;3.92;1.70;;;;;;;;;;5060928;28;20044;-90
2022/04/24 14:41:22;;;;;;;6.13;2.80;;;;;;;;;;5063224;28;20075;-90
2022/04/24 14:43:48;;;;;;;3.00;1.10;;;;;;;;;;5067035;28;20055;-90
2022/04/24 14:57:13;;;;;;;4.63;2.20;;;;;;;;;;5064955;28;20051;-91
2022/04/24 14:59:40;;;;;;;2.67;1.33;;;;;;;;;;5062952;28;20054;-90